sensor_id;sensor_type;location;lat;lon;timestamp;temperature;humidity
67586;SHT31;55785;47.946;20.540;2023-04-09T07:03:11;17.64;58.46
67586;SHT31;55785;47.946;20.540;2023-04-09T07:05:36;17.39;59.33
67586;SHT31;55785;47.946;20.540;2023-04-09T07:08:01;17.34;59.80
67586;SHT31;55785;47.946;20.540;2023-04-09T07:10:27;17.38;60.18
67586;SHT31;55785;47.946;20.540;2023-04-09T07:12:52;17.35;60.36
67586;SHT31;55785;47.946;20.540;2023-04-09T07:15:17;17.37;60.36
67586;SHT31;55785;47.946;20.540;2023-04-09T07:17:43;17.42;60.42
67586;SHT31;55785;47.946;20.540;2023-04-09T07:20:09;17.47;60.48
67586;SHT31;55785;47.946;20.540;2023-04-09T07:22:34;17.44;60.43
67586;SHT31;55785;47.946;20.540;2023-04-09T07:25:00;17.48;60.70
67586;SHT31;55785;47.946;20.540;2023-04-09T07:32:25;11.28;59.59
67586;SHT31;55785;47.946;20.540;2023-04-09T07:34:51;10.08;63.54
67586;SHT31;55785;47.946;20.540;2023-04-09T07:37:16;9.27;66.04
67586;SHT31;55785;47.946;20.540;2023-04-09T07:39:42;8.60;69.61
67586;SHT31;55785;47.946;20.540;2023-04-09T07:42:07;8.34;71.48
67586;SHT31;55785;47.946;20.540;2023-04-09T07:44:36;8.13;70.74
67586;SHT31;55785;47.946;20.540;2023-04-09T07:47:05;7.93;71.56
67586;SHT31;55785;47.946;20.540;2023-04-09T07:49:31;7.92;71.89
67586;SHT31;55785;47.946;20.540;2023-04-09T07:51:58;7.93;72.67
67586;SHT31;55785;47.946;20.540;2023-04-09T07:54:23;7.90;72.20
67586;SHT31;55785;47.946;20.540;2023-04-09T07:56:49;7.93;73.74
67586;SHT31;55785;47.946;20.540;2023-04-09T07:59:14;8.07;73.09
67586;SHT31;55785;47.946;20.540;2023-04-09T08:01:40;8.14;73.02
67586;SHT31;55785;47.946;20.540;2023-04-09T08:04:06;8.20;73.38
67586;SHT31;55785;47.946;20.540;2023-04-09T08:06:31;8.16;72.97
67586;SHT31;55785;47.946;20.540;2023-04-09T08:08:57;8.23;72.29
67586;SHT31;55785;47.946;20.540;2023-04-09T08:11:22;8.12;71.40
67586;SHT31;55785;47.946;20.540;2023-04-09T08:13:47;8.17;72.66
67586;SHT31;55785;47.946;20.540;2023-04-09T08:16:13;8.12;72.69
67586;SHT31;55785;47.946;20.540;2023-04-09T08:18:38;8.16;72.15
67586;SHT31;55785;47.946;20.540;2023-04-09T08:21:04;8.25;73.23
67586;SHT31;55785;47.946;20.540;2023-04-09T08:23:29;8.38;74.99
67586;SHT31;55785;47.946;20.540;2023-04-09T08:25:54;8.43;71.51
67586;SHT31;55785;47.946;20.540;2023-04-09T08:28:20;8.51;72.63
67586;SHT31;55785;47.946;20.540;2023-04-09T08:30:45;8.63;71.31
67586;SHT31;55785;47.946;20.540;2023-04-09T08:33:10;8.71;73.06
67586;SHT31;55785;47.946;20.540;2023-04-09T08:35:36;8.89;72.94
67586;SHT31;55785;47.946;20.540;2023-04-09T08:38:01;8.92;70.51
67586;SHT31;55785;47.946;20.540;2023-04-09T08:40:26;8.93;70.79
67586;SHT31;55785;47.946;20.540;2023-04-09T08:42:55;8.96;69.27
67586;SHT31;55785;47.946;20.540;2023-04-09T08:45:21;9.05;72.45
67586;SHT31;55785;47.946;20.540;2023-04-09T08:47:47;9.08;68.78
67586;SHT31;55785;47.946;20.540;2023-04-09T08:50:13;9.11;68.60
67586;SHT31;55785;47.946;20.540;2023-04-09T08:52:39;9.18;71.14
67586;SHT31;55785;47.946;20.540;2023-04-09T08:55:05;9.42;69.26
67586;SHT31;55785;47.946;20.540;2023-04-09T08:57:38;9.60;68.28
67586;SHT31;55785;47.946;20.540;2023-04-09T09:00:05;9.55;68.44
67586;SHT31;55785;47.946;20.540;2023-04-09T09:02:30;9.80;67.82
67586;SHT31;55785;47.946;20.540;2023-04-09T09:04:56;9.82;68.03
67586;SHT31;55785;47.946;20.540;2023-04-09T09:07:21;9.95;66.80
67586;SHT31;55785;47.946;20.540;2023-04-09T09:09:57;10.06;67.28
67586;SHT31;55785;47.946;20.540;2023-04-09T09:12:40;10.03;65.86
67586;SHT31;55785;47.946;20.540;2023-04-09T09:15:25;10.13;66.62
67586;SHT31;55785;47.946;20.540;2023-04-09T09:17:55;10.42;68.34
67586;SHT31;55785;47.946;20.540;2023-04-09T09:20:22;10.49;66.08
67586;SHT31;55785;47.946;20.540;2023-04-09T09:22:50;10.55;65.67
67586;SHT31;55785;47.946;20.540;2023-04-09T09:25:15;10.97;63.74
67586;SHT31;55785;47.946;20.540;2023-04-09T09:27:41;11.25;65.08
67586;SHT31;55785;47.946;20.540;2023-04-09T09:30:06;11.00;59.71
67586;SHT31;55785;47.946;20.540;2023-04-09T09:32:32;10.71;61.22
67586;SHT31;55785;47.946;20.540;2023-04-09T09:35:05;10.50;68.70
67586;SHT31;55785;47.946;20.540;2023-04-09T09:37:32;10.55;67.09
67586;SHT31;55785;47.946;20.540;2023-04-09T09:39:58;10.43;61.22
67586;SHT31;55785;47.946;20.540;2023-04-09T09:42:23;10.29;62.77
67586;SHT31;55785;47.946;20.540;2023-04-09T09:44:49;10.18;64.29
67586;SHT31;55785;47.946;20.540;2023-04-09T09:47:17;10.18;63.06
67586;SHT31;55785;47.946;20.540;2023-04-09T09:49:42;10.02;64.47
67586;SHT31;55785;47.946;20.540;2023-04-09T09:52:09;10.19;64.00
67586;SHT31;55785;47.946;20.540;2023-04-09T09:54:40;10.46;64.50
67586;SHT31;55785;47.946;20.540;2023-04-09T09:57:06;10.45;66.10
67586;SHT31;55785;47.946;20.540;2023-04-09T09:59:36;10.42;61.38
67586;SHT31;55785;47.946;20.540;2023-04-09T10:02:05;10.59;66.75
67586;SHT31;55785;47.946;20.540;2023-04-09T10:04:33;10.74;61.40
67586;SHT31;55785;47.946;20.540;2023-04-09T10:07:00;10.79;60.25
67586;SHT31;55785;47.946;20.540;2023-04-09T10:09:29;10.63;58.65
67586;SHT31;55785;47.946;20.540;2023-04-09T10:11:56;10.39;60.30
67586;SHT31;55785;47.946;20.540;2023-04-09T10:14:22;10.36;61.86
67586;SHT31;55785;47.946;20.540;2023-04-09T10:16:48;10.42;63.26
67586;SHT31;55785;47.946;20.540;2023-04-09T10:19:14;10.60;64.30
67586;SHT31;55785;47.946;20.540;2023-04-09T10:22:12;10.85;65.28
67586;SHT31;55785;47.946;20.540;2023-04-09T10:24:40;11.17;61.96
67586;SHT31;55785;47.946;20.540;2023-04-09T10:27:13;11.39;62.16
67586;SHT31;55785;47.946;20.540;2023-04-09T10:29:44;11.46;62.28
67586;SHT31;55785;47.946;20.540;2023-04-09T10:32:10;11.31;55.94
67586;SHT31;55785;47.946;20.540;2023-04-09T10:34:38;11.06;63.69
67586;SHT31;55785;47.946;20.540;2023-04-09T10:37:06;11.10;61.32
67586;SHT31;55785;47.946;20.540;2023-04-09T10:39:32;11.21;57.13
67586;SHT31;55785;47.946;20.540;2023-04-09T10:41:59;11.04;57.41
67586;SHT31;55785;47.946;20.540;2023-04-09T10:44:26;10.96;57.19
67586;SHT31;55785;47.946;20.540;2023-04-09T10:46:55;10.97;57.86
67586;SHT31;55785;47.946;20.540;2023-04-09T10:49:22;11.06;58.75
67586;SHT31;55785;47.946;20.540;2023-04-09T10:52:08;11.10;63.98
67586;SHT31;55785;47.946;20.540;2023-04-09T10:57:19;11.01;58.95
67586;SHT31;55785;47.946;20.540;2023-04-09T10:59:54;11.24;61.73
67586;SHT31;55785;47.946;20.540;2023-04-09T11:08:15;11.48;57.51
67586;SHT31;55785;47.946;20.540;2023-04-09T11:10:43;11.62;59.18
67586;SHT31;55785;47.946;20.540;2023-04-09T11:13:16;11.69;56.65
67586;SHT31;55785;47.946;20.540;2023-04-09T11:15:43;11.76;56.21
67586;SHT31;55785;47.946;20.540;2023-04-09T11:18:13;11.96;56.09
67586;SHT31;55785;47.946;20.540;2023-04-09T11:20:38;11.69;57.58
67586;SHT31;55785;47.946;20.540;2023-04-09T11:23:04;12.03;56.49
67586;SHT31;55785;47.946;20.540;2023-04-09T11:25:31;12.41;52.87
67586;SHT31;55785;47.946;20.540;2023-04-09T11:27:58;12.52;55.20
67586;SHT31;55785;47.946;20.540;2023-04-09T11:30:23;12.18;55.73
67586;SHT31;55785;47.946;20.540;2023-04-09T11:32:49;12.08;61.49
67586;SHT31;55785;47.946;20.540;2023-04-09T11:35:16;12.20;56.13
67586;SHT31;55785;47.946;20.540;2023-04-09T11:37:43;12.27;60.29
67586;SHT31;55785;47.946;20.540;2023-04-09T11:40:22;12.17;56.78
67586;SHT31;55785;47.946;20.540;2023-04-09T11:42:49;11.72;60.62
67586;SHT31;55785;47.946;20.540;2023-04-09T11:45:15;11.48;57.41
67586;SHT31;55785;47.946;20.540;2023-04-09T11:47:42;11.45;59.56
67586;SHT31;55785;47.946;20.540;2023-04-09T11:50:09;11.29;59.09
67586;SHT31;55785;47.946;20.540;2023-04-09T11:52:35;11.10;55.58
67586;SHT31;55785;47.946;20.540;2023-04-09T11:55:04;10.97;57.19
67586;SHT31;55785;47.946;20.540;2023-04-09T11:57:40;10.96;57.82
67586;SHT31;55785;47.946;20.540;2023-04-09T12:00:16;11.01;60.16
67586;SHT31;55785;47.946;20.540;2023-04-09T12:02:45;11.03;58.33
67586;SHT31;55785;47.946;20.540;2023-04-09T12:05:12;11.10;58.66
67586;SHT31;55785;47.946;20.540;2023-04-09T12:07:44;11.06;59.38
67586;SHT31;55785;47.946;20.540;2023-04-09T12:10:10;11.10;58.80
67586;SHT31;55785;47.946;20.540;2023-04-09T12:12:39;11.28;57.63
67586;SHT31;55785;47.946;20.540;2023-04-09T12:17:37;11.77;55.34
67586;SHT31;55785;47.946;20.540;2023-04-09T12:20:02;11.77;58.23
67586;SHT31;55785;47.946;20.540;2023-04-09T12:22:28;11.55;59.74
67586;SHT31;55785;47.946;20.540;2023-04-09T12:24:54;11.36;60.40
67586;SHT31;55785;47.946;20.540;2023-04-09T12:27:19;11.36;61.01
67586;SHT31;55785;47.946;20.540;2023-04-09T12:29:44;11.22;59.26
67586;SHT31;55785;47.946;20.540;2023-04-09T12:32:10;11.17;56.66
67586;SHT31;55785;47.946;20.540;2023-04-09T12:34:35;11.22;56.57
67586;SHT31;55785;47.946;20.540;2023-04-09T12:37:00;11.21;57.86
67586;SHT31;55785;47.946;20.540;2023-04-09T12:39:26;11.25;58.09
67586;SHT31;55785;47.946;20.540;2023-04-09T12:41:51;11.28;57.35
67586;SHT31;55785;47.946;20.540;2023-04-09T12:44:16;11.38;54.60
67586;SHT31;55785;47.946;20.540;2023-04-09T12:46:42;11.39;56.17
67586;SHT31;55785;47.946;20.540;2023-04-09T12:49:07;11.31;58.06
67586;SHT31;55785;47.946;20.540;2023-04-09T12:51:32;11.36;54.82
67586;SHT31;55785;47.946;20.540;2023-04-09T12:53:58;11.38;55.52
67586;SHT31;55785;47.946;20.540;2023-04-09T12:56:23;11.38;55.90
67586;SHT31;55785;47.946;20.540;2023-04-09T12:58:48;11.36;55.41
67586;SHT31;55785;47.946;20.540;2023-04-09T13:01:14;11.38;60.43
67586;SHT31;55785;47.946;20.540;2023-04-09T13:03:39;11.28;55.64
67586;SHT31;55785;47.946;20.540;2023-04-09T13:06:05;11.25;56.69
67586;SHT31;55785;47.946;20.540;2023-04-09T13:08:30;11.31;57.11
67586;SHT31;55785;47.946;20.540;2023-04-09T13:10:55;11.32;56.11
67586;SHT31;55785;47.946;20.540;2023-04-09T13:13:21;11.34;57.74
67586;SHT31;55785;47.946;20.540;2023-04-09T13:15:46;11.35;57.80
67586;SHT31;55785;47.946;20.540;2023-04-09T13:18:12;11.38;56.05
67586;SHT31;55785;47.946;20.540;2023-04-09T13:20:37;11.48;54.20
67586;SHT31;55785;47.946;20.540;2023-04-09T13:23:03;11.55;55.47
67586;SHT31;55785;47.946;20.540;2023-04-09T13:25:28;11.58;54.48
67586;SHT31;55785;47.946;20.540;2023-04-09T13:27:54;11.56;54.56
67586;SHT31;55785;47.946;20.540;2023-04-09T13:30:21;11.65;56.66
67586;SHT31;55785;47.946;20.540;2023-04-09T13:32:46;11.66;55.19
67586;SHT31;55785;47.946;20.540;2023-04-09T13:35:11;11.67;55.69
67586;SHT31;55785;47.946;20.540;2023-04-09T13:37:37;11.61;56.77
67586;SHT31;55785;47.946;20.540;2023-04-09T13:40:02;11.59;54.93
67586;SHT31;55785;47.946;20.540;2023-04-09T13:42:28;11.55;56.73
67586;SHT31;55785;47.946;20.540;2023-04-09T13:44:53;11.48;55.01
67586;SHT31;55785;47.946;20.540;2023-04-09T13:47:19;11.45;59.39
67586;SHT31;55785;47.946;20.540;2023-04-09T13:49:45;11.31;59.56
67586;SHT31;55785;47.946;20.540;2023-04-09T13:52:12;11.24;58.49
67586;SHT31;55785;47.946;20.540;2023-04-09T13:54:37;11.28;61.25
67586;SHT31;55785;47.946;20.540;2023-04-09T13:57:03;11.38;59.75
67586;SHT31;55785;47.946;20.540;2023-04-09T13:59:28;11.49;57.93
67586;SHT31;55785;47.946;20.540;2023-04-09T14:01:54;11.59;57.59
67586;SHT31;55785;47.946;20.540;2023-04-09T14:04:19;11.58;55.63
67586;SHT31;55785;47.946;20.540;2023-04-09T14:06:45;11.63;57.09
67586;SHT31;55785;47.946;20.540;2023-04-09T14:09:11;11.66;56.30
67586;SHT31;55785;47.946;20.540;2023-04-09T14:11:36;11.66;56.73
67586;SHT31;55785;47.946;20.540;2023-04-09T14:14:01;11.61;56.29
67586;SHT31;55785;47.946;20.540;2023-04-09T14:16:27;11.65;56.68
67586;SHT31;55785;47.946;20.540;2023-04-09T14:18:52;11.62;55.95
67586;SHT31;55785;47.946;20.540;2023-04-09T14:21:18;11.63;57.83
67586;SHT31;55785;47.946;20.540;2023-04-09T14:23:43;11.63;55.47
67586;SHT31;55785;47.946;20.540;2023-04-09T14:26:09;11.61;54.61
67586;SHT31;55785;47.946;20.540;2023-04-09T14:28:35;11.63;54.62
67586;SHT31;55785;47.946;20.540;2023-04-09T14:31:00;11.66;54.56
67586;SHT31;55785;47.946;20.540;2023-04-09T14:33:26;11.73;57.82
67586;SHT31;55785;47.946;20.540;2023-04-09T14:35:51;11.67;57.25
67586;SHT31;55785;47.946;20.540;2023-04-09T14:38:17;11.62;55.81
67586;SHT31;55785;47.946;20.540;2023-04-09T14:40:42;11.62;57.55
67586;SHT31;55785;47.946;20.540;2023-04-09T14:43:08;11.62;58.88
67586;SHT31;55785;47.946;20.540;2023-04-09T14:45:34;11.58;59.08
67586;SHT31;55785;47.946;20.540;2023-04-09T14:47:59;11.51;55.82
67586;SHT31;55785;47.946;20.540;2023-04-09T14:50:24;11.49;55.92
67586;SHT31;55785;47.946;20.540;2023-04-09T14:52:50;11.52;56.03
67586;SHT31;55785;47.946;20.540;2023-04-09T14:55:17;11.52;57.22
67586;SHT31;55785;47.946;20.540;2023-04-09T14:57:43;11.55;56.54
67586;SHT31;55785;47.946;20.540;2023-04-09T15:00:10;11.63;54.78
67586;SHT31;55785;47.946;20.540;2023-04-09T15:02:36;11.63;57.30
67586;SHT31;55785;47.946;20.540;2023-04-09T15:05:01;11.67;54.60
67586;SHT31;55785;47.946;20.540;2023-04-09T15:07:27;11.67;55.24
67586;SHT31;55785;47.946;20.540;2023-04-09T15:09:53;11.80;59.23
67586;SHT31;55785;47.946;20.540;2023-04-09T15:12:18;11.83;56.17
67586;SHT31;55785;47.946;20.540;2023-04-09T15:14:43;11.89;56.54
67586;SHT31;55785;47.946;20.540;2023-04-09T15:17:09;11.90;55.69
67586;SHT31;55785;47.946;20.540;2023-04-09T15:19:34;12.00;55.01
67586;SHT31;55785;47.946;20.540;2023-04-09T15:21:59;12.01;55.77
67586;SHT31;55785;47.946;20.540;2023-04-09T15:24:25;12.06;55.41
67586;SHT31;55785;47.946;20.540;2023-04-09T15:26:50;12.14;55.60
67586;SHT31;55785;47.946;20.540;2023-04-09T15:29:16;12.20;53.48
67586;SHT31;55785;47.946;20.540;2023-04-09T15:31:41;12.04;54.06
67586;SHT31;55785;47.946;20.540;2023-04-09T15:34:06;12.07;53.62
67586;SHT31;55785;47.946;20.540;2023-04-09T15:36:32;12.03;53.48
67586;SHT31;55785;47.946;20.540;2023-04-09T15:38:57;11.96;57.08
67586;SHT31;55785;47.946;20.540;2023-04-09T15:41:23;11.91;53.28
67586;SHT31;55785;47.946;20.540;2023-04-09T15:43:49;11.91;56.77
67586;SHT31;55785;47.946;20.540;2023-04-09T15:46:14;11.80;58.46
67586;SHT31;55785;47.946;20.540;2023-04-09T15:48:40;11.66;59.56
67586;SHT31;55785;47.946;20.540;2023-04-09T15:51:05;11.63;55.99
67586;SHT31;55785;47.946;20.540;2023-04-09T15:53:30;11.54;55.65
67586;SHT31;55785;47.946;20.540;2023-04-09T15:55:56;11.51;57.48
67586;SHT31;55785;47.946;20.540;2023-04-09T15:58:21;11.40;61.21
67586;SHT31;55785;47.946;20.540;2023-04-09T16:00:46;11.27;57.73
67586;SHT31;55785;47.946;20.540;2023-04-09T16:03:12;11.22;59.61
67586;SHT31;55785;47.946;20.540;2023-04-09T16:05:37;11.19;60.83
67586;SHT31;55785;47.946;20.540;2023-04-09T16:08:03;11.14;56.96
67586;SHT31;55785;47.946;20.540;2023-04-09T16:10:28;11.14;61.25
67586;SHT31;55785;47.946;20.540;2023-04-09T16:12:53;11.12;61.93
67586;SHT31;55785;47.946;20.540;2023-04-09T16:15:19;11.10;59.87
67586;SHT31;55785;47.946;20.540;2023-04-09T16:17:44;11.06;62.76
67586;SHT31;55785;47.946;20.540;2023-04-09T16:20:09;10.93;61.46
67586;SHT31;55785;47.946;20.540;2023-04-09T16:22:35;10.87;61.25
67586;SHT31;55785;47.946;20.540;2023-04-09T16:25:00;10.81;61.19
67586;SHT31;55785;47.946;20.540;2023-04-09T16:27:25;10.79;61.16
67586;SHT31;55785;47.946;20.540;2023-04-09T16:29:51;10.76;61.27
67586;SHT31;55785;47.946;20.540;2023-04-09T16:32:16;10.70;62.61
67586;SHT31;55785;47.946;20.540;2023-04-09T16:34:42;10.63;63.30
67586;SHT31;55785;47.946;20.540;2023-04-09T16:37:07;10.59;66.23
67586;SHT31;55785;47.946;20.540;2023-04-09T16:39:32;10.49;67.75
67586;SHT31;55785;47.946;20.540;2023-04-09T16:41:58;10.35;67.54
67586;SHT31;55785;47.946;20.540;2023-04-09T16:44:24;10.15;68.04
67586;SHT31;55785;47.946;20.540;2023-04-09T16:46:49;10.08;68.60
67586;SHT31;55785;47.946;20.540;2023-04-09T16:49:15;9.92;69.90
67586;SHT31;55785;47.946;20.540;2023-04-09T16:51:40;9.80;68.87
67586;SHT31;55785;47.946;20.540;2023-04-09T16:54:05;9.70;68.47
67586;SHT31;55785;47.946;20.540;2023-04-09T16:56:31;9.65;69.25
67586;SHT31;55785;47.946;20.540;2023-04-09T16:58:56;9.64;69.39
67586;SHT31;55785;47.946;20.540;2023-04-09T17:01:21;9.54;70.43
67586;SHT31;55785;47.946;20.540;2023-04-09T17:03:47;9.44;69.84
67586;SHT31;55785;47.946;20.540;2023-04-09T17:06:13;9.36;70.04
67586;SHT31;55785;47.946;20.540;2023-04-09T17:08:38;9.33;70.50
67586;SHT31;55785;47.946;20.540;2023-04-09T17:11:03;9.30;71.50
67586;SHT31;55785;47.946;20.540;2023-04-09T17:13:30;9.33;71.35
67586;SHT31;55785;47.946;20.540;2023-04-09T17:15:56;9.34;71.18
67586;SHT31;55785;47.946;20.540;2023-04-09T17:18:21;9.23;71.34
67586;SHT31;55785;47.946;20.540;2023-04-09T17:20:46;9.01;72.07
67586;SHT31;55785;47.946;20.540;2023-04-09T17:23:12;8.69;73.14
67586;SHT31;55785;47.946;20.540;2023-04-09T17:25:37;8.51;74.03
67586;SHT31;55785;47.946;20.540;2023-04-09T17:28:02;8.34;74.50
67586;SHT31;55785;47.946;20.540;2023-04-09T17:30:30;8.26;75.01
67586;SHT31;55785;47.946;20.540;2023-04-09T17:32:55;8.25;74.97
67586;SHT31;55785;47.946;20.540;2023-04-09T17:35:21;8.25;75.33
67586;SHT31;55785;47.946;20.540;2023-04-09T17:37:46;8.23;74.83
67586;SHT31;55785;47.946;20.540;2023-04-09T17:40:11;8.19;75.21
67586;SHT31;55785;47.946;20.540;2023-04-09T17:42:37;7.98;75.33
67586;SHT31;55785;47.946;20.540;2023-04-09T17:45:03;7.71;76.47
67586;SHT31;55785;47.946;20.540;2023-04-09T17:47:28;7.51;76.81
67586;SHT31;55785;47.946;20.540;2023-04-09T17:49:53;7.38;77.24
67586;SHT31;55785;47.946;20.540;2023-04-09T17:52:19;7.30;77.46
67586;SHT31;55785;47.946;20.540;2023-04-09T17:54:44;7.23;77.55
67586;SHT31;55785;47.946;20.540;2023-04-09T17:57:09;7.20;77.50
67586;SHT31;55785;47.946;20.540;2023-04-09T17:59:35;7.09;77.94
67586;SHT31;55785;47.946;20.540;2023-04-09T18:02:00;6.97;77.85
67586;SHT31;55785;47.946;20.540;2023-04-09T18:04:26;6.80;77.92
67586;SHT31;55785;47.946;20.540;2023-04-09T18:06:51;6.61;78.21
67586;SHT31;55785;47.946;20.540;2023-04-09T18:09:17;6.48;79.04
67586;SHT31;55785;47.946;20.540;2023-04-09T18:11:43;6.46;79.72
67586;SHT31;55785;47.946;20.540;2023-04-09T18:14:09;6.37;79.20
67586;SHT31;55785;47.946;20.540;2023-04-09T18:16:35;6.24;79.37
67586;SHT31;55785;47.946;20.540;2023-04-09T18:19:00;6.16;79.63
67586;SHT31;55785;47.946;20.540;2023-04-09T18:21:25;6.14;79.60
67586;SHT31;55785;47.946;20.540;2023-04-09T18:23:51;6.01;79.59
67586;SHT31;55785;47.946;20.540;2023-04-09T18:26:16;5.99;79.79
67586;SHT31;55785;47.946;20.540;2023-04-09T18:28:41;5.93;79.97
67586;SHT31;55785;47.946;20.540;2023-04-09T18:31:09;5.86;79.98
67586;SHT31;55785;47.946;20.540;2023-04-09T18:33:34;5.80;79.91
67586;SHT31;55785;47.946;20.540;2023-04-09T18:36:00;5.70;79.66
67586;SHT31;55785;47.946;20.540;2023-04-09T18:38:27;5.58;79.64
67586;SHT31;55785;47.946;20.540;2023-04-09T18:40:52;5.46;79.56
67586;SHT31;55785;47.946;20.540;2023-04-09T18:43:18;5.20;80.16
67586;SHT31;55785;47.946;20.540;2023-04-09T18:45:43;5.20;80.36
67586;SHT31;55785;47.946;20.540;2023-04-09T18:48:08;5.10;80.26
67586;SHT31;55785;47.946;20.540;2023-04-09T18:50:34;4.98;80.52
67586;SHT31;55785;47.946;20.540;2023-04-09T18:52:59;4.84;80.84
67586;SHT31;55785;47.946;20.540;2023-04-09T18:55:24;4.73;81.07
67586;SHT31;55785;47.946;20.540;2023-04-09T18:57:50;4.62;81.07
67586;SHT31;55785;47.946;20.540;2023-04-09T19:00:15;4.53;81.35
67586;SHT31;55785;47.946;20.540;2023-04-09T19:02:40;4.46;81.70
67586;SHT31;55785;47.946;20.540;2023-04-09T19:05:06;4.38;81.79
67586;SHT31;55785;47.946;20.540;2023-04-09T19:07:32;4.32;81.86
67586;SHT31;55785;47.946;20.540;2023-04-09T19:09:57;4.24;81.95
67586;SHT31;55785;47.946;20.540;2023-04-09T19:12:23;4.15;82.06
67586;SHT31;55785;47.946;20.540;2023-04-09T19:14:48;4.08;82.13
67586;SHT31;55785;47.946;20.540;2023-04-09T19:17:13;3.98;82.23
67586;SHT31;55785;47.946;20.540;2023-04-09T19:19:39;3.94;82.44
67586;SHT31;55785;47.946;20.540;2023-04-09T19:22:04;3.84;82.35
67586;SHT31;55785;47.946;20.540;2023-04-09T19:24:29;3.91;82.68
67586;SHT31;55785;47.946;20.540;2023-04-09T19:26:55;3.87;82.81
67586;SHT31;55785;47.946;20.540;2023-04-09T19:29:20;3.74;82.58
67586;SHT31;55785;47.946;20.540;2023-04-09T19:31:46;3.69;82.42
67586;SHT31;55785;47.946;20.540;2023-04-09T19:34:11;3.57;82.66
67586;SHT31;55785;47.946;20.540;2023-04-09T19:36:37;3.53;82.82
67586;SHT31;55785;47.946;20.540;2023-04-09T19:39:03;3.40;82.70
67586;SHT31;55785;47.946;20.540;2023-04-09T19:41:28;3.32;83.07
67586;SHT31;55785;47.946;20.540;2023-04-09T19:43:54;3.26;83.45
67586;SHT31;55785;47.946;20.540;2023-04-09T19:46:19;3.28;83.85
67586;SHT31;55785;47.946;20.540;2023-04-09T19:48:46;3.25;84.06
67586;SHT31;55785;47.946;20.540;2023-04-09T19:51:18;3.30;84.12
67586;SHT31;55785;47.946;20.540;2023-04-09T19:53:43;3.36;84.07
67586;SHT31;55785;47.946;20.540;2023-04-09T19:56:09;3.43;84.19
67586;SHT31;55785;47.946;20.540;2023-04-09T19:58:34;3.55;84.08
67586;SHT31;55785;47.946;20.540;2023-04-09T20:00:59;3.56;83.91
67586;SHT31;55785;47.946;20.540;2023-04-09T20:03:25;3.57;83.94
67586;SHT31;55785;47.946;20.540;2023-04-09T20:05:50;3.67;83.89
67586;SHT31;55785;47.946;20.540;2023-04-09T20:08:15;3.69;83.68
67586;SHT31;55785;47.946;20.540;2023-04-09T20:10:40;3.78;83.62
67586;SHT31;55785;47.946;20.540;2023-04-09T20:13:06;3.83;83.34
67586;SHT31;55785;47.946;20.540;2023-04-09T20:15:31;3.90;83.32
67586;SHT31;55785;47.946;20.540;2023-04-09T20:17:57;3.98;83.20
67586;SHT31;55785;47.946;20.540;2023-04-09T20:20:22;4.02;82.94
67586;SHT31;55785;47.946;20.540;2023-04-09T20:22:47;4.05;82.71
67586;SHT31;55785;47.946;20.540;2023-04-09T20:25:13;4.08;82.76
67586;SHT31;55785;47.946;20.540;2023-04-09T20:27:38;4.07;82.66
67586;SHT31;55785;47.946;20.540;2023-04-09T20:30:04;4.09;82.51
67586;SHT31;55785;47.946;20.540;2023-04-09T20:32:30;4.11;82.42
67586;SHT31;55785;47.946;20.540;2023-04-09T20:34:55;4.12;82.51
67586;SHT31;55785;47.946;20.540;2023-04-09T20:37:20;4.14;82.48
67586;SHT31;55785;47.946;20.540;2023-04-09T20:39:46;4.08;82.36
67586;SHT31;55785;47.946;20.540;2023-04-09T20:42:11;4.05;82.27
67586;SHT31;55785;47.946;20.540;2023-04-09T20:44:36;3.99;82.22
67586;SHT31;55785;47.946;20.540;2023-04-09T20:47:02;3.95;82.24
67586;SHT31;55785;47.946;20.540;2023-04-09T20:49:27;3.86;82.31
67586;SHT31;55785;47.946;20.540;2023-04-09T20:51:52;3.77;82.58
67586;SHT31;55785;47.946;20.540;2023-04-09T20:54:18;3.69;82.89
67586;SHT31;55785;47.946;20.540;2023-04-09T20:56:43;3.66;82.95
67586;SHT31;55785;47.946;20.540;2023-04-09T20:59:08;3.57;83.13
67586;SHT31;55785;47.946;20.540;2023-04-09T21:01:34;3.56;83.19
67586;SHT31;55785;47.946;20.540;2023-04-09T21:03:59;3.44;83.29
67586;SHT31;55785;47.946;20.540;2023-04-09T21:06:25;3.35;83.48
67586;SHT31;55785;47.946;20.540;2023-04-09T21:08:50;3.19;83.59
67586;SHT31;55785;47.946;20.540;2023-04-09T21:11:15;3.20;83.79
67586;SHT31;55785;47.946;20.540;2023-04-09T21:13:41;3.20;84.24
67586;SHT31;55785;47.946;20.540;2023-04-09T21:16:07;3.18;84.33
67586;SHT31;55785;47.946;20.540;2023-04-09T21:18:33;3.22;84.50
67586;SHT31;55785;47.946;20.540;2023-04-09T21:20:58;3.28;84.53
67586;SHT31;55785;47.946;20.540;2023-04-09T21:23:23;3.32;84.50
67586;SHT31;55785;47.946;20.540;2023-04-09T21:25:49;3.36;84.48
67586;SHT31;55785;47.946;20.540;2023-04-09T21:28:14;3.40;84.37
67586;SHT31;55785;47.946;20.540;2023-04-09T21:30:40;3.50;84.27
67586;SHT31;55785;47.946;20.540;2023-04-09T21:33:07;3.57;84.31
67586;SHT31;55785;47.946;20.540;2023-04-09T21:35:34;3.66;84.03
67586;SHT31;55785;47.946;20.540;2023-04-09T21:38:00;3.59;83.97
67586;SHT31;55785;47.946;20.540;2023-04-09T21:40:25;3.50;84.12
67586;SHT31;55785;47.946;20.540;2023-04-09T21:42:51;3.52;84.27
67586;SHT31;55785;47.946;20.540;2023-04-09T21:45:16;3.56;84.17
67586;SHT31;55785;47.946;20.540;2023-04-09T21:47:42;3.59;84.35
67586;SHT31;55785;47.946;20.540;2023-04-09T21:50:07;3.57;84.57
67586;SHT31;55785;47.946;20.540;2023-04-09T21:52:33;3.59;84.31
67586;SHT31;55785;47.946;20.540;2023-04-09T21:54:59;3.71;84.30
67586;SHT31;55785;47.946;20.540;2023-04-09T21:57:24;3.74;84.30
67586;SHT31;55785;47.946;20.540;2023-04-09T21:59:49;3.78;84.12
67586;SHT31;55785;47.946;20.540;2023-04-09T22:02:15;3.80;84.16
67586;SHT31;55785;47.946;20.540;2023-04-09T22:04:40;3.83;84.37
67586;SHT31;55785;47.946;20.540;2023-04-09T22:07:05;3.80;84.69
67586;SHT31;55785;47.946;20.540;2023-04-09T22:09:31;3.80;84.67
67586;SHT31;55785;47.946;20.540;2023-04-09T22:11:57;3.81;84.91
67586;SHT31;55785;47.946;20.540;2023-04-09T22:14:22;3.87;84.85
67586;SHT31;55785;47.946;20.540;2023-04-09T22:16:47;3.90;84.83
67586;SHT31;55785;47.946;20.540;2023-04-09T22:19:13;3.87;85.06
67586;SHT31;55785;47.946;20.540;2023-04-09T22:21:39;3.91;85.07
67586;SHT31;55785;47.946;20.540;2023-04-09T22:24:04;3.87;85.06
67586;SHT31;55785;47.946;20.540;2023-04-09T22:26:30;3.90;84.96
67586;SHT31;55785;47.946;20.540;2023-04-09T22:28:56;3.88;84.74
67586;SHT31;55785;47.946;20.540;2023-04-09T22:31:21;3.90;84.82
67586;SHT31;55785;47.946;20.540;2023-04-09T22:33:46;3.94;85.06